createdAt,value
2023-03-17T00:00:13.772Z,1434.00
2023-03-17T00:01:13.865Z,1424.00
2023-03-17T00:02:13.982Z,1429.00
2023-03-17T00:03:14.056Z,1422.00
2023-03-17T00:04:14.138Z,1425.00
2023-03-17T00:05:14.217Z,1416.00
2023-03-17T00:06:14.322Z,1432.00
2023-03-17T00:07:14.432Z,1397.00
2023-03-17T00:08:14.542Z,1403.00
2023-03-17T00:09:14.672Z,1413.00
2023-03-17T00:10:14.744Z,1417.00
2023-03-17T00:11:14.921Z,1420.00
2023-03-17T00:12:14.991Z,1424.00
2023-03-17T00:13:15.103Z,1412.00
2023-03-17T00:14:15.293Z,1400.00
2023-03-17T00:15:15.319Z,1408.00
2023-03-17T00:16:15.467Z,1388.00
2023-03-17T00:17:15.502Z,1401.00
2023-03-17T00:18:15.599Z,1404.00
2023-03-17T00:39:17.973Z,1375.00
2023-03-17T00:49:19.151Z,1339.00
2023-03-17T02:39:28.002Z,1152.00
2023-03-17T02:40:28.387Z,1137.00
2023-03-17T02:41:28.098Z,1139.00
2023-03-17T02:42:28.174Z,1128.00
2023-03-17T02:43:28.225Z,1116.00
2023-03-17T02:44:28.273Z,1121.00
2023-03-17T02:45:28.343Z,1123.00
2023-03-17T02:46:28.543Z,1125.00
2023-03-17T02:47:28.515Z,1120.00
2023-03-17T02:48:28.618Z,1125.00
2023-03-17T02:49:28.682Z,1119.00
2023-03-17T02:50:29.075Z,1115.00
2023-03-17T02:51:28.858Z,1130.00
2023-03-17T02:52:28.959Z,1126.00
2023-03-17T02:53:28.963Z,1100.00
2023-03-17T02:54:29.024Z,1111.00
2023-03-17T02:55:29.066Z,1106.00
2023-03-17T02:56:29.121Z,1108.00
2023-03-17T02:57:29.215Z,1112.00
2023-03-17T02:58:29.238Z,1107.00
2023-03-17T02:59:29.296Z,1109.00
2023-03-17T03:00:29.655Z,1093.00
2023-03-17T03:01:29.507Z,1103.00
2023-03-17T03:02:29.492Z,1108.00
2023-03-17T03:03:29.536Z,1092.00
2023-03-17T03:04:29.703Z,1104.00
2023-03-17T03:05:29.643Z,1098.00
2023-03-17T03:06:29.694Z,1084.00
2023-03-17T03:07:29.764Z,1102.00
2023-03-17T03:08:29.838Z,1096.00
2023-03-17T03:09:29.907Z,1090.00
2023-03-17T03:10:30.159Z,1095.00
2023-03-17T03:11:30.010Z,1096.00
2023-03-17T03:12:30.095Z,1083.00
2023-03-17T03:13:30.180Z,1073.00
2023-03-17T03:14:30.282Z,1102.00
2023-03-17T03:15:30.470Z,1079.00
2023-03-17T03:16:30.458Z,1094.00
2023-03-17T03:17:30.527Z,1083.00
2023-03-17T03:18:30.586Z,1084.00
2023-03-17T03:19:30.667Z,1075.00
2023-03-17T03:20:31.006Z,1083.00
2023-03-17T03:21:30.859Z,1088.00
2023-03-17T03:22:30.931Z,1082.00
2023-03-17T03:23:31.009Z,1067.00
2023-03-17T03:24:31.113Z,1072.00
2023-03-17T03:25:31.156Z,1066.00
2023-03-17T03:26:31.201Z,1074.00
2023-03-17T03:27:31.283Z,1070.00
2023-03-17T03:28:31.369Z,1055.00
2023-03-17T03:29:31.423Z,1071.00
2023-03-17T03:30:32.004Z,1054.00
2023-03-17T03:31:31.579Z,1045.00
2023-03-17T03:32:31.700Z,1050.00
2023-03-17T03:33:31.693Z,1070.00
2023-03-17T03:34:31.753Z,1050.00
2023-03-17T03:35:31.827Z,1053.00
2023-03-17T03:36:31.868Z,1053.00
2023-03-17T03:37:31.946Z,1051.00
2023-03-17T03:38:32.103Z,1044.00
2023-03-17T03:39:32.114Z,1032.00
2023-03-17T03:40:32.472Z,1054.00
2023-03-17T03:41:32.319Z,1054.00
2023-03-17T03:42:32.399Z,1052.00
2023-03-17T03:43:32.476Z,1061.00
2023-03-17T03:44:32.540Z,1042.00
2023-03-17T03:45:32.615Z,1041.00
2023-03-17T03:46:32.781Z,1037.00
2023-03-17T03:47:32.792Z,1047.00
2023-03-17T03:48:32.881Z,1046.00
2023-03-17T03:49:32.984Z,1037.00
2023-03-17T03:50:33.049Z,1032.00
2023-03-17T03:51:33.143Z,1031.00
2023-03-17T03:52:33.213Z,1034.00
2023-03-17T03:53:33.252Z,1053.00
2023-03-17T03:54:33.314Z,1043.00
2023-03-17T03:55:33.372Z,1008.00
2023-03-17T03:56:33.431Z,1031.00
2023-03-17T03:57:33.498Z,1016.00
2023-03-17T03:58:33.576Z,1023.00
2023-03-17T03:59:33.601Z,1029.00
2023-03-17T04:00:33.658Z,1024.00
2023-03-17T04:01:33.739Z,1028.00
2023-03-17T04:02:33.814Z,1022.00
2023-03-17T04:03:33.879Z,1032.00
2023-03-17T04:04:33.966Z,1035.00
2023-03-17T04:05:33.990Z,1020.00
2023-03-17T04:06:34.065Z,1031.00
2023-03-17T04:07:34.175Z,1039.00
2023-03-17T04:08:34.266Z,1023.00
2023-03-17T04:09:34.332Z,1005.00
2023-03-17T04:10:34.441Z,1016.00
2023-03-17T04:11:34.511Z,1011.00
2023-03-17T04:12:34.552Z,1023.00
2023-03-17T04:13:34.612Z,1005.00
2023-03-17T04:14:34.677Z,1015.00
2023-03-17T04:15:34.794Z,1012.00
2023-03-17T04:16:34.832Z,997.00
2023-03-17T04:17:34.858Z,996.00
2023-03-17T04:18:34.974Z,1000.00
2023-03-17T04:19:35.001Z,994.00
2023-03-17T04:20:35.040Z,999.00
2023-03-17T04:21:35.122Z,995.00
2023-03-17T04:22:35.238Z,991.00
2023-03-17T04:23:35.326Z,1000.00
2023-03-17T04:24:35.426Z,997.00
2023-03-17T04:25:35.541Z,977.00
2023-03-17T04:26:35.654Z,990.00
2023-03-17T04:27:35.766Z,987.00
2023-03-17T04:28:35.892Z,972.00
2023-03-17T04:29:35.988Z,993.00
2023-03-17T04:30:36.089Z,979.00
2023-03-17T04:31:36.215Z,973.00
2023-03-17T04:32:36.335Z,974.00
2023-03-17T04:33:36.420Z,967.00
2023-03-17T04:34:36.546Z,979.00
2023-03-17T04:47:37.984Z,938.00
2023-03-17T04:48:38.641Z,950.00
2023-03-17T04:49:38.190Z,928.00
2023-03-17T04:50:38.287Z,943.00
2023-03-17T04:51:38.404Z,931.00
2023-03-17T04:52:38.527Z,938.00
2023-03-17T04:53:38.624Z,941.00
2023-03-17T04:54:38.744Z,935.00
2023-03-17T04:55:38.837Z,940.00
2023-03-17T04:56:38.949Z,937.00
2023-03-17T04:57:39.069Z,925.00
2023-03-17T04:58:39.164Z,937.00
2023-03-17T04:59:39.274Z,929.00
2023-03-17T05:00:39.376Z,932.00
2023-03-17T05:01:39.486Z,925.00
2023-03-17T05:02:39.632Z,921.00
2023-03-17T05:03:39.720Z,926.00
2023-03-17T05:04:39.813Z,930.00
2023-03-17T05:05:39.920Z,928.00
2023-03-17T05:06:40.043Z,925.00
2023-03-17T05:07:40.152Z,927.00
2023-03-17T05:08:40.245Z,919.00
2023-03-17T05:09:40.366Z,920.00
2023-03-17T06:21:48.016Z,835.00
2023-03-17T06:23:02.701Z,885.00
2023-03-17T06:23:49.163Z,887.00
2023-03-17T06:24:48.209Z,889.00
2023-03-17T06:25:48.259Z,899.00
2023-03-17T06:26:48.302Z,914.00
2023-03-17T06:27:48.338Z,916.00
2023-03-17T06:28:48.386Z,931.00
2023-03-17T06:29:48.428Z,956.00
2023-03-17T06:30:48.526Z,988.00
2023-03-17T06:31:48.519Z,973.00
2023-03-17T06:32:48.594Z,1032.00
2023-03-17T06:33:48.601Z,1048.00
2023-03-17T06:34:48.678Z,1068.00
2023-03-17T06:35:48.747Z,1114.00
2023-03-17T06:36:48.745Z,1146.00
2023-03-17T06:37:48.795Z,1151.00
2023-03-17T06:38:48.846Z,1176.00
2023-03-17T06:39:48.924Z,1196.00
2023-03-17T06:40:48.958Z,1221.00
2023-03-17T06:41:49.024Z,1266.00
2023-03-17T06:42:49.098Z,1287.00
2023-03-17T06:43:49.160Z,1297.00
2023-03-17T06:44:49.263Z,1329.00
2023-03-17T06:45:49.365Z,1351.00
2023-03-17T06:46:49.528Z,1391.00
2023-03-17T06:47:49.568Z,1416.00
2023-03-17T06:48:49.660Z,1447.00
2023-03-17T06:49:49.748Z,1471.00
2023-03-17T06:50:49.858Z,1485.00
2023-03-17T06:51:49.937Z,1506.00
2023-03-17T06:52:50.047Z,1533.00
2023-03-17T06:53:50.142Z,1559.00
2023-03-17T06:54:50.220Z,1575.00
2023-03-17T06:55:50.302Z,1606.00
2023-03-17T06:56:50.376Z,1460.00
2023-03-17T06:57:51.266Z,1495.00
2023-03-17T06:58:50.556Z,1128.00
2023-03-17T06:59:50.656Z,936.00
2023-03-17T07:00:50.693Z,983.00
2023-03-17T07:01:50.782Z,1130.00
2023-03-17T07:02:50.825Z,1176.00
2023-03-17T07:03:50.896Z,1189.00
2023-03-17T07:04:50.987Z,1205.00
2023-03-17T07:05:51.012Z,1170.00
2023-03-17T07:06:51.083Z,1238.00
2023-03-17T07:07:51.169Z,1282.00
2023-03-17T07:08:51.276Z,1305.00
2023-03-17T07:53:05.441Z,1888.00
2023-03-17T09:29:57.989Z,461.00
2023-03-17T09:30:58.050Z,504.00
2023-03-17T09:31:58.042Z,538.00
2023-03-17T09:32:58.206Z,540.00
2023-03-17T09:33:58.095Z,548.00
2023-03-17T09:34:58.123Z,585.00
2023-03-17T09:35:58.223Z,620.00
2023-03-17T09:36:58.180Z,638.00
2023-03-17T09:37:58.202Z,654.00
2023-03-17T09:38:58.230Z,695.00
2023-03-17T09:39:58.299Z,757.00
2023-03-17T09:40:58.395Z,793.00
2023-03-17T09:41:58.478Z,831.00
2023-03-17T09:42:58.537Z,871.00
2023-03-17T09:43:58.619Z,899.00
2023-03-17T09:44:58.672Z,963.00
2023-03-17T09:45:58.740Z,988.00
2023-03-17T09:46:58.795Z,1009.00
2023-03-17T09:47:58.864Z,1042.00
2023-03-17T09:48:58.891Z,1083.00
2023-03-17T09:49:58.936Z,1099.00
2023-03-17T09:50:58.987Z,1116.00
2023-03-17T09:57:59.268Z,1272.00
2023-03-17T09:58:59.298Z,1292.00
2023-03-17T09:59:59.333Z,1313.00
2023-03-17T10:00:59.360Z,1332.00
2023-03-17T10:01:59.444Z,1366.00
2023-03-17T10:02:59.421Z,1361.00
2023-03-17T10:03:59.437Z,1366.00
2023-03-17T10:04:59.524Z,1406.00
2023-03-17T10:05:59.482Z,1405.00
2023-03-17T10:06:59.513Z,1418.00
2023-03-17T10:07:59.552Z,1438.00
2023-03-17T10:08:59.569Z,1455.00
2023-03-17T10:09:59.581Z,1456.00
2023-03-17T10:10:59.610Z,1470.00
2023-03-17T10:11:59.650Z,1499.00
2023-03-17T10:12:59.671Z,1507.00
2023-03-17T10:13:59.718Z,1526.00
2023-03-17T10:14:59.732Z,1531.00
2023-03-17T10:15:59.819Z,1561.00
2023-03-17T10:16:59.776Z,1533.00
2023-03-17T10:17:59.818Z,1557.00
2023-03-17T10:18:59.868Z,1534.00
2023-03-17T10:19:59.884Z,1559.00
2023-03-17T10:20:59.908Z,1562.00
2023-03-17T10:21:59.954Z,1552.00
2023-03-17T10:22:59.973Z,1525.00
2023-03-17T10:24:00.021Z,1500.00
2023-03-17T10:25:02.397Z,1516.00
2023-03-17T10:26:00.116Z,1527.00
2023-03-17T10:27:00.115Z,1539.00
2023-03-17T10:28:00.144Z,1546.00
2023-03-17T10:29:00.160Z,1535.00
2023-03-17T10:30:00.184Z,1561.00
2023-03-17T10:31:00.207Z,1538.00
2023-03-17T10:32:00.317Z,1509.00
2023-03-17T10:33:00.263Z,1503.00
2023-03-17T10:34:00.262Z,1506.00
2023-03-17T10:35:00.293Z,1478.00
2023-03-17T10:36:00.344Z,1486.00
2023-03-17T10:37:00.343Z,1492.00
2023-03-17T10:38:13.853Z,1477.00
2023-03-17T10:40:00.410Z,1459.00
2023-03-17T10:41:00.435Z,1453.00
2023-03-17T10:43:00.482Z,1455.00
2023-03-17T10:44:00.494Z,1441.00
2023-03-17T10:45:00.519Z,1447.00
2023-03-17T10:46:00.546Z,1440.00
2023-03-17T10:47:00.634Z,1441.00
2023-03-17T10:48:00.608Z,1420.00
2023-03-17T10:49:00.622Z,1393.00
2023-03-17T10:50:00.633Z,1373.00
2023-03-17T10:51:00.659Z,1373.00
2023-03-17T10:52:00.679Z,1347.00
2023-03-17T10:53:00.796Z,1339.00
2023-03-17T10:54:00.830Z,1333.00
2023-03-17T10:55:00.935Z,1338.00
2023-03-17T10:57:01.123Z,1328.00
2023-03-17T10:58:01.202Z,1300.00
2023-03-17T10:59:01.264Z,1267.00
2023-03-17T11:41:04.344Z,1825.00
2023-03-17T12:53:07.997Z,1805.00
2023-03-17T12:54:08.074Z,1811.00
2023-03-17T12:55:08.158Z,1799.00
2023-03-17T12:56:08.236Z,1793.00
2023-03-17T12:57:08.334Z,1799.00
2023-03-17T12:58:08.421Z,1787.00
2023-03-17T12:59:08.518Z,1780.00
2023-03-17T13:00:08.606Z,1787.00
2023-03-17T13:01:08.969Z,1777.00
2023-03-17T13:02:08.800Z,1776.00
2023-03-17T13:03:08.919Z,1769.00
2023-03-17T13:04:08.964Z,1773.00
2023-03-17T13:05:09.029Z,1766.00
2023-03-17T13:06:09.121Z,1763.00
2023-03-17T13:07:09.246Z,1748.00
2023-03-17T13:08:09.306Z,1746.00
2023-03-17T13:09:09.394Z,1748.00
2023-03-17T13:10:09.478Z,1740.00
2023-03-17T13:11:09.561Z,1742.00
2023-03-17T13:12:09.648Z,1741.00
2023-03-17T13:13:09.754Z,1741.00
2023-03-17T13:14:09.837Z,1727.00
2023-03-17T13:15:09.928Z,1735.00
2023-03-17T13:16:10.050Z,1724.00
2023-03-17T13:17:10.057Z,1716.00
2023-03-17T13:18:10.167Z,1713.00
2023-03-17T13:19:10.252Z,1715.00
2023-03-17T15:23:17.990Z,1406.00
2023-03-17T15:24:18.038Z,1409.00
2023-03-17T15:25:18.112Z,1396.00
2023-03-17T15:26:18.125Z,1404.00
2023-03-17T15:27:18.175Z,1395.00
2023-03-17T15:28:18.236Z,1396.00
2023-03-17T15:29:18.252Z,1394.00
2023-03-17T15:30:18.295Z,1396.00
2023-03-17T15:31:18.362Z,1392.00
2023-03-17T15:32:18.362Z,1389.00
2023-03-17T15:33:18.419Z,1387.00
2023-03-17T15:34:18.464Z,1383.00
2023-03-17T15:37:18.560Z,1369.00
2023-03-17T15:44:18.838Z,1367.00
2023-03-17T15:45:18.899Z,1361.00
2023-03-17T15:46:19.040Z,1359.00
2023-03-17T15:47:19.031Z,1363.00
2023-03-17T18:24:28.024Z,1055.00
2023-03-17T18:25:28.107Z,1066.00
2023-03-17T18:26:28.183Z,1042.00
2023-03-17T18:27:28.259Z,1056.00
2023-03-17T18:28:28.354Z,1047.00
2023-03-17T18:29:28.411Z,1052.00
2023-03-17T18:30:28.489Z,1032.00
2023-03-17T18:31:28.564Z,1034.00
2023-03-17T18:32:28.657Z,1030.00
2023-03-17T18:33:28.714Z,1027.00
2023-03-17T18:34:28.790Z,1025.00
2023-03-17T18:35:28.910Z,1007.00
2023-03-17T18:36:28.942Z,1021.00
2023-03-17T18:37:29.005Z,1017.00
2023-03-17T18:38:29.100Z,1013.00
2023-03-17T18:39:29.167Z,1012.00
2023-03-17T18:40:29.243Z,1008.00
2023-03-17T18:41:29.308Z,1007.00
2023-03-17T18:42:29.398Z,1017.00
2023-03-17T18:43:29.470Z,1010.00
2023-03-17T18:44:29.545Z,1001.00
2023-03-17T18:45:29.649Z,999.00
2023-03-17T18:46:29.726Z,985.00
2023-03-17T18:47:29.786Z,996.00
2023-03-17T18:48:29.864Z,997.00
2023-03-17T18:49:29.946Z,993.00
2023-03-17T18:50:30.280Z,979.00
2023-03-17T18:51:30.113Z,976.00
2023-03-17T18:52:30.184Z,977.00
2023-03-17T18:53:30.258Z,966.00
2023-03-17T18:54:30.345Z,985.00
2023-03-17T18:55:30.437Z,989.00
2023-03-17T18:56:30.517Z,973.00
2023-03-17T18:57:30.587Z,983.00
2023-03-17T18:58:30.675Z,978.00
2023-03-17T18:59:30.748Z,972.00
2023-03-17T19:00:31.084Z,963.00
2023-03-17T19:01:30.951Z,962.00
2023-03-17T19:02:31.000Z,967.00
2023-03-17T19:03:31.131Z,954.00
2023-03-17T19:04:31.153Z,962.00
2023-03-17T19:05:31.252Z,978.00
2023-03-17T19:06:31.311Z,963.00
2023-03-17T19:07:31.400Z,953.00
2023-03-17T19:08:31.476Z,956.00
2023-03-17T19:09:31.547Z,942.00
2023-03-17T19:10:31.829Z,941.00
2023-03-17T19:11:31.716Z,954.00
2023-03-17T19:12:31.807Z,950.00
2023-03-17T19:13:31.888Z,950.00
2023-03-17T19:14:31.981Z,948.00
2023-03-17T19:15:32.073Z,967.00
2023-03-17T19:16:32.164Z,951.00
2023-03-17T19:17:32.220Z,932.00
2023-03-17T19:18:32.311Z,929.00
2023-03-17T19:19:32.390Z,945.00
2023-03-17T19:20:32.880Z,939.00
2023-03-17T19:21:32.528Z,936.00
2023-03-17T19:22:32.614Z,944.00
2023-03-17T19:23:32.685Z,930.00
2023-03-17T19:24:32.767Z,931.00
2023-03-17T19:25:32.848Z,933.00
2023-03-17T19:26:32.937Z,931.00
2023-03-17T19:27:33.033Z,919.00
2023-03-17T20:22:38.026Z,861.00
2023-03-17T20:23:38.113Z,854.00
2023-03-17T20:24:38.237Z,845.00
2023-03-17T20:25:38.312Z,856.00
2023-03-17T20:26:38.416Z,858.00
2023-03-17T20:27:38.511Z,846.00
2023-03-17T20:28:38.634Z,851.00
2023-03-17T20:29:38.775Z,838.00
2023-03-17T20:30:38.810Z,845.00
2023-03-17T20:31:38.977Z,845.00
2023-03-17T20:32:39.053Z,842.00
2023-03-17T20:33:39.118Z,844.00
2023-03-17T20:34:39.212Z,844.00
2023-03-17T20:35:39.321Z,833.00
2023-03-17T20:36:39.393Z,844.00
2023-03-17T20:37:39.485Z,838.00
2023-03-17T20:38:39.585Z,837.00
2023-03-17T20:39:39.669Z,840.00
2023-03-17T20:40:39.778Z,836.00
2023-03-17T20:41:39.875Z,837.00
2023-03-17T20:42:40.002Z,834.00
2023-03-17T20:43:40.082Z,833.00
2023-03-17T20:44:40.183Z,837.00
2023-03-17T20:45:40.285Z,820.00
2023-03-17T20:46:40.452Z,828.00
2023-03-17T20:47:40.507Z,813.00
2023-03-17T20:48:40.621Z,825.00
2023-03-17T20:49:40.707Z,815.00
2023-03-17T20:50:40.821Z,811.00
2023-03-17T20:51:40.905Z,812.00
2023-03-17T20:52:41.005Z,798.00
2023-03-17T20:53:41.108Z,818.00
2023-03-17T20:54:41.214Z,803.00
2023-03-17T20:55:41.303Z,800.00
2023-03-17T20:56:41.397Z,809.00
2023-03-17T20:57:41.506Z,804.00
2023-03-17T20:58:41.596Z,805.00
2023-03-17T20:59:41.721Z,813.00
2023-03-17T21:00:41.809Z,813.00
2023-03-17T21:01:41.933Z,806.00
2023-03-17T21:02:42.100Z,809.00
2023-03-17T21:03:42.085Z,809.00
2023-03-17T21:04:42.199Z,801.00
2023-03-17T21:05:42.305Z,802.00
2023-03-17T21:06:42.411Z,792.00
2023-03-17T21:07:42.575Z,782.00
2023-03-17T21:08:42.582Z,784.00
2023-03-17T21:09:42.685Z,779.00
2023-03-17T21:10:42.809Z,788.00
2023-03-17T21:11:42.911Z,786.00
2023-03-17T21:12:43.013Z,795.00
2023-03-17T21:13:43.120Z,785.00
2023-03-17T21:14:43.222Z,781.00
2023-03-17T21:15:43.329Z,779.00
2023-03-17T21:16:43.448Z,776.00
2023-03-17T21:17:43.543Z,765.00
2023-03-17T21:18:43.650Z,770.00
2023-03-17T21:19:43.742Z,779.00
2023-03-17T21:20:43.879Z,766.00
2023-03-17T21:21:43.938Z,769.00
2023-03-17T21:22:44.048Z,778.00
2023-03-17T21:23:44.168Z,778.00
2023-03-17T21:24:44.268Z,772.00
2023-03-17T21:25:44.381Z,781.00
2023-03-17T21:26:44.475Z,776.00
2023-03-17T21:27:44.600Z,768.00
2023-03-17T21:28:44.694Z,764.00
2023-03-17T21:29:44.786Z,771.00
2023-03-17T21:30:44.885Z,766.00
2023-03-17T21:31:45.079Z,763.00
2023-03-17T21:32:45.148Z,757.00
2023-03-17T21:33:45.214Z,750.00
2023-03-17T21:34:45.311Z,744.00
2023-03-17T21:35:45.485Z,743.00
2023-03-17T21:36:45.553Z,749.00
2023-03-17T21:37:45.661Z,749.00
2023-03-17T21:38:45.746Z,757.00
2023-03-17T21:39:45.883Z,749.00
2023-03-17T21:40:45.958Z,746.00
2023-03-17T21:41:46.063Z,755.00
2023-03-17T21:42:46.166Z,760.00
2023-03-17T21:43:46.274Z,761.00
2023-03-17T21:44:46.380Z,761.00
2023-03-17T21:59:47.973Z,726.00
2023-03-17T22:00:48.474Z,722.00
2023-03-17T22:01:48.194Z,727.00
2023-03-17T22:02:48.426Z,717.00
2023-03-17T22:03:48.418Z,710.00
2023-03-17T22:04:48.517Z,727.00
2023-03-17T22:05:48.637Z,720.00
2023-03-17T22:06:48.745Z,709.00
2023-03-17T22:07:48.826Z,709.00
2023-03-17T22:08:48.935Z,721.00
2023-03-17T22:09:49.052Z,720.00
2023-03-17T22:10:49.193Z,707.00
2023-03-17T22:11:49.276Z,712.00
2023-03-17T22:12:49.370Z,715.00
2023-03-17T22:13:49.480Z,712.00
2023-03-17T22:14:49.580Z,708.00
2023-03-17T22:15:49.710Z,698.00
2023-03-17T22:16:49.861Z,726.00
2023-03-17T22:17:49.896Z,693.00
2023-03-17T22:18:50.002Z,692.00
2023-03-17T22:19:50.113Z,694.00
2023-03-17T22:20:50.219Z,705.00
2023-03-17T22:21:50.333Z,707.00
2023-03-17T22:22:50.449Z,684.00
2023-03-17T22:23:50.554Z,703.00
2023-03-17T22:24:50.695Z,685.00
2023-03-17T22:25:50.793Z,693.00
2023-03-17T22:26:50.914Z,669.00
2023-03-17T22:27:51.022Z,678.00
2023-03-17T22:28:51.125Z,683.00
2023-03-17T22:29:51.232Z,679.00
2023-03-17T22:30:51.338Z,688.00
2023-03-17T22:31:51.493Z,691.00
2023-03-17T22:33:51.668Z,697.00
2023-03-17T22:34:51.778Z,677.00
2023-03-17T22:35:51.917Z,694.00
2023-03-17T22:36:52.019Z,694.00
2023-03-17T23:29:58.065Z,654.00
2023-03-17T23:30:58.234Z,652.00
2023-03-17T23:31:58.304Z,649.00
2023-03-17T23:32:58.462Z,653.00
2023-03-17T23:33:58.526Z,652.00
2023-03-17T23:34:58.642Z,657.00
2023-03-17T23:35:58.817Z,655.00
2023-03-17T23:36:58.865Z,653.00
2023-03-17T23:37:58.980Z,648.00
2023-03-17T23:38:59.096Z,653.00
2023-03-17T23:39:59.212Z,658.00
2023-03-17T23:40:59.320Z,658.00
2023-03-17T23:41:59.442Z,645.00
2023-03-17T23:42:59.562Z,650.00
2023-03-17T23:43:59.681Z,644.00
2023-03-17T23:44:59.797Z,642.00
2023-03-17T23:45:59.932Z,638.00
2023-03-17T23:47:00.020Z,643.00
2023-03-17T23:48:00.129Z,654.00
2023-03-17T23:49:00.244Z,651.00
2023-03-17T23:50:00.350Z,644.00
2023-03-17T23:51:00.454Z,645.00
2023-03-17T23:52:00.583Z,642.00
2023-03-17T23:53:00.729Z,652.00
2023-03-17T23:54:00.805Z,646.00
2023-03-17T23:55:00.925Z,643.00
2023-03-17T23:56:01.054Z,647.00
2023-03-17T23:57:01.159Z,643.00
2023-03-17T23:58:01.282Z,649.00
2023-03-17T23:59:01.367Z,642.00
